Time;durP1;ratioP1;P1;durP2;ratioP2;P2;SDS_P1;SDS_P2;PMS_P1;PMS_P2;Temp;Humidity;BMP_temperature;BMP_pressure;BME280_temperature;BME280_humidity;BME280_pressure;Samples;Min_cycle;Max_cycle;Signal;HPM_P1;HPM_P2
2023/03/21 00:02:15;;;;;;;;;;;;;;;6.25;90.39;101682.81;4959247;28;19932;-71
2023/03/21 00:04:40;;;;;;;;;;;;;;;6.26;90.35;101684.44;4965626;28;19956;-72
2023/03/21 00:07:06;;;;;;;;;;;;;;;6.31;90.16;101675.00;4959070;28;20372;-73
2023/03/21 00:09:34;;;;;;;;;;;;;;;6.30;89.86;101684.81;4979327;28;19951;-73
2023/03/21 00:12:00;;;;;;;;;;;;;;;6.28;90.33;101682.34;4977341;28;19975;-73
2023/03/21 00:14:29;;;;;;;;;;;;;;;6.30;90.43;101682.16;4975352;28;20374;-72
2023/03/21 00:16:56;;;;;;;;;;;;;;;6.29;90.13;101685.84;4974515;28;19959;-72
2023/03/21 00:19:23;;;;;;;;;;;;;;;6.31;90.24;101675.00;4978056;28;21160;-73
2023/03/21 00:21:51;;;;;;;;;;;;;;;6.29;90.55;101672.53;4978071;28;19936;-73
2023/03/21 00:24:16;;;;;;;;;;;;;;;6.30;90.79;101674.19;4961617;28;19948;-75
2023/03/21 00:26:42;;;;;;;;;;;;;;;6.31;90.19;101672.34;4982046;28;19937;-73
2023/03/21 00:29:07;;;;;;;;;;;;;;;6.29;90.20;101672.53;4974652;28;20292;-73
2023/03/21 00:31:36;;;;;;;;;;;;;;;6.31;90.13;101669.69;4957324;28;20043;-74
2023/03/21 00:34:02;;;;;;;;;;;;;;;6.29;90.17;101670.69;4961984;28;20467;-73
2023/03/21 00:36:29;;;;;;;;;;;;;;;6.34;90.40;101670.03;4973395;28;20007;-73
2023/03/21 00:38:59;;;;;;;;;;;;;;;6.33;90.12;101667.59;4961276;28;19952;-72
2023/03/21 00:41:25;;;;;;;;;;;;;;;6.34;90.20;101661.25;4949932;28;19938;-72
2023/03/21 00:43:50;;;;;;;;;;;;;;;6.34;90.00;101656.72;4961096;28;20294;-72
2023/03/21 00:46:16;;;;;;;;;;;;;;;6.33;90.43;101663.09;4944304;28;19964;-71
2023/03/21 00:48:41;;;;;;;;;;;;;;;6.36;90.36;101653.84;4974175;28;21382;-72
2023/03/21 00:51:14;;;;;;;;;;;;;;;6.33;90.09;101659.63;4981928;28;20429;-73
2023/03/21 00:53:40;;;;;;;;;;;;;;;6.33;90.80;101663.09;4972612;28;19943;-72
2023/03/21 00:56:05;;;;;;;;;;;;;;;6.31;90.67;101662.50;4968798;28;20057;-72
2023/03/21 00:58:31;;;;;;;;;;;;;;;6.34;90.67;101653.25;4965881;28;19959;-71
2023/03/21 01:00:57;;;;;;;;;;;;;;;6.33;90.83;101641.81;4975464;28;20028;-72
2023/03/21 01:03:25;;;;;;;;;;;;;;;6.36;90.96;101646.69;4982805;28;19953;-73
2023/03/21 01:06:03;;;;;;;;;;;;;;;6.35;91.10;101641.59;4963975;28;20024;-72
2023/03/21 01:08:30;;;;;;;;;;;;;;;6.30;91.38;101642.25;4956544;28;19957;-72
2023/03/21 01:10:59;;;;;;;;;;;;;;;6.34;91.36;101632.78;4963245;28;19937;-73
2023/03/21 01:13:25;;;;;;;;;;;;;;;6.33;90.95;101641.00;4997504;28;19950;-72
2023/03/21 01:15:52;;;;;;;;;;;;;;;6.34;91.05;101637.31;4973544;28;19946;-72
2023/03/21 01:18:20;;;;;;;;;;;;;;;6.33;91.31;101638.34;4962265;28;20002;-74
2023/03/21 01:20:48;;;;;;;;;;;;;;;6.34;91.16;101642.63;4966567;28;19938;-71
2023/03/21 01:23:15;;;;;;;;;;;;;;;6.33;91.40;101641.00;4980548;28;19939;-72
2023/03/21 01:25:41;;;;;;;;;;;;;;;6.35;91.51;101641.59;4976515;28;20055;-72
2023/03/21 01:28:06;;;;;;;;;;;;;;;6.36;91.35;101637.88;4977243;28;19955;-72
2023/03/21 01:30:32;;;;;;;;;;;;;;;6.34;91.37;101637.31;4974922;28;19950;-72
2023/03/21 01:33:00;;;;;;;;;;;;;;;6.32;91.28;101634.88;4967823;28;20461;-71
2023/03/21 01:35:26;;;;;;;;;;;;;;;6.35;91.40;101638.94;5000388;28;20013;-73
2023/03/21 01:37:52;;;;;;;;;;;;;;;6.39;91.56;101640.13;4976662;28;19959;-72
2023/03/21 01:40:24;;;;;;;;;;;;;;;6.38;91.41;101635.84;4977435;28;19943;-73
2023/03/21 01:42:56;;;;;;;;;;;;;;;6.36;91.52;101635.22;4980561;28;20500;-74
2023/03/21 01:45:41;;;;;;;;;;;;;;;6.38;91.52;101627.84;4960244;28;20031;-72
2023/03/21 01:48:06;;;;;;;;;;;;;;;6.36;91.85;101635.22;4975024;28;19999;-72
2023/03/21 01:50:41;;;;;;;;;;;;;;;6.36;91.62;101630.72;4941476;28;20119;-73
2023/03/21 01:53:21;;;;;;;;;;;;;;;6.40;91.79;101634.56;4957705;28;19948;-71
2023/03/21 01:55:48;;;;;;;;;;;;;;;6.41;91.30;101635.38;4957370;28;19938;-72
2023/03/21 01:58:36;;;;;;;;;;;;;;;6.41;91.26;101622.91;4965046;28;20498;-73
2023/03/21 02:01:08;;;;;;;;;;;;;;;6.41;91.52;101622.09;4946148;28;19951;-73
2023/03/21 02:03:51;;;;;;;;;;;;;;;6.39;91.39;101624.97;4945917;28;20029;-73
2023/03/21 02:06:51;;;;;;;;;;;;;;;6.41;91.64;101622.09;4948701;28;19970;-73
2023/03/21 02:09:45;;;;;;;;;;;;;;;6.38;91.59;101618.03;4973577;28;20295;-74
2023/03/21 02:12:15;;;;;;;;;;;;;;;6.39;91.92;101618.84;4977730;28;20434;-72
2023/03/21 02:14:41;;;;;;;;;;;;;;;6.38;91.93;101614.56;4959396;28;19982;-72
2023/03/21 02:17:33;;;;;;;;;;;;;;;6.37;92.09;101618.22;4949543;28;19970;-72
2023/03/21 02:20:07;;;;;;;;;;;;;;;6.39;91.84;101613.50;4964156;28;19945;-73
2023/03/21 02:22:45;;;;;;;;;;;;;;;6.39;91.88;101609.00;4980745;28;19950;-73
2023/03/21 02:25:36;;;;;;;;;;;;;;;6.40;91.84;101601.84;4983249;28;19989;-75
2023/03/21 02:28:22;;;;;;;;;;;;;;;6.41;92.26;101606.13;4978087;28;19967;-74
2023/03/21 02:31:07;;;;;;;;;;;;;;;6.41;91.94;101598.94;4948432;28;19966;-73
2023/03/21 02:33:51;;;;;;;;;;;;;;;6.40;92.03;101593.84;4955626;28;20622;-72
2023/03/21 02:36:26;;;;;;;;;;;;;;;6.39;92.30;101593.03;4964405;28;20389;-73
2023/03/21 02:39:07;;;;;;;;;;;;;;;6.41;91.94;101606.94;4982325;28;19968;-72
2023/03/21 02:41:44;;;;;;;;;;;;;;;6.42;92.32;101591.78;4978837;28;19938;-72
2023/03/21 02:44:33;;;;;;;;;;;;;;;6.42;92.23;101597.09;4963847;28;19942;-71
2023/03/21 02:47:02;;;;;;;;;;;;;;;6.41;92.15;101595.47;4964672;28;19957;-71
2023/03/21 02:49:49;;;;;;;;;;;;;;;6.42;92.15;101586.47;4977786;28;20323;-74
2023/03/21 02:52:21;;;;;;;;;;;;;;;6.43;91.98;101593.41;4959250;28;19937;-72
2023/03/21 02:54:48;;;;;;;;;;;;;;;6.42;92.11;101587.28;4946146;28;19948;-73
2023/03/21 02:57:21;;;;;;;;;;;;;;;6.45;91.77;101591.34;4963278;28;19961;-72
2023/03/21 02:59:49;;;;;;;;;;;;;;;6.45;91.89;101591.34;4959144;28;20177;-74
2023/03/21 03:02:18;;;;;;;;;;;;;;;6.45;91.88;101588.69;4950158;28;19948;-72
2023/03/21 03:04:44;;;;;;;;;;;;;;;6.45;91.99;101591.34;4965722;28;20510;-72
2023/03/21 03:07:15;;;;;;;;;;;;;;;6.47;92.13;101584.75;4960380;28;19971;-71
2023/03/21 03:09:47;;;;;;;;;;;;;;;6.47;92.07;101581.28;4960412;28;19934;-72
2023/03/21 03:12:32;;;;;;;;;;;;;;;6.49;92.12;101589.84;4964541;28;20557;-72
2023/03/21 03:15:01;;;;;;;;;;;;;;;6.56;91.77;101587.94;4944342;28;19983;-72
2023/03/21 03:17:30;;;;;;;;;;;;;;;6.49;92.11;101579.22;4975480;28;20324;-72
2023/03/21 03:20:02;;;;;;;;;;;;;;;6.51;91.71;101579.81;4941956;28;19943;-72
2023/03/21 03:22:38;;;;;;;;;;;;;;;6.54;91.89;101582.03;4949939;28;19936;-72
2023/03/21 03:25:06;;;;;;;;;;;;;;;6.54;91.62;101569.53;4978372;28;19956;-72
2023/03/21 03:27:39;;;;;;;;;;;;;;;6.53;92.17;101567.09;4994840;28;19950;-72
2023/03/21 03:30:06;;;;;;;;;;;;;;;6.55;91.92;101570.34;4994542;28;20287;-72
2023/03/21 03:32:43;;;;;;;;;;;;;;;6.59;91.53;101568.88;4964716;28;19940;-72
2023/03/21 03:35:10;;;;;;;;;;;;;;;6.55;91.66;101565.84;4934638;28;19944;-73
2023/03/21 03:37:37;;;;;;;;;;;;;;;6.54;91.79;101568.72;4963929;28;20033;-71
2023/03/21 03:40:14;;;;;;;;;;;;;;;6.57;92.12;101558.47;4966638;28;19953;-72
2023/03/21 03:42:51;;;;;;;;;;;;;;;6.61;91.91;101558.81;4967031;28;20343;-72
2023/03/21 03:45:27;;;;;;;;;;;;;;;6.63;91.96;101561.25;4973652;28;19965;-73
2023/03/21 03:47:53;;;;;;;;;;;;;;;6.59;91.95;101558.22;4978444;28;19957;-73
2023/03/21 03:50:24;;;;;;;;;;;;;;;6.57;91.87;101563.78;4977133;28;19936;-72
2023/03/21 03:52:53;;;;;;;;;;;;;;;6.60;91.96;101562.50;4984009;28;20059;-72
2023/03/21 03:55:20;;;;;;;;;;;;;;;6.62;92.11;101559.63;4963431;28;19942;-72
2023/03/21 03:57:48;;;;;;;;;;;;;;;6.60;92.06;101562.50;4959133;28;19969;-72
2023/03/21 04:00:15;;;;;;;;;;;;;;;6.60;91.92;101567.84;4976647;28;19942;-72
2023/03/21 04:02:46;;;;;;;;;;;;;;;6.59;91.93;101566.22;4966388;28;19939;-72
2023/03/21 04:05:19;;;;;;;;;;;;;;;6.56;92.10;101567.44;4975083;28;20609;-73
2023/03/21 04:07:51;;;;;;;;;;;;;;;6.56;91.84;101561.31;4971905;28;19961;-71
2023/03/21 04:10:23;;;;;;;;;;;;;;;6.56;91.92;101561.31;4942881;28;19944;-74
2023/03/21 04:12:49;;;;;;;;;;;;;;;6.55;92.14;101557.03;4967720;28;19946;-73
2023/03/21 04:15:37;;;;;;;;;;;;;;;6.57;92.21;101560.31;4963092;28;20028;-72
2023/03/21 04:18:10;;;;;;;;;;;;;;;6.60;91.83;101562.50;4975769;28;19973;-75
2023/03/21 04:20:35;;;;;;;;;;;;;;;6.56;92.06;101556.00;4972739;28;19966;-73
2023/03/21 04:23:02;;;;;;;;;;;;;;;6.58;92.10;101556.59;4960138;28;19963;-73
2023/03/21 04:25:27;;;;;;;;;;;;;;;6.61;92.14;101564.13;4977130;28;20466;-72
2023/03/21 04:27:56;;;;;;;;;;;;;;;6.56;92.05;101561.31;4964145;28;19954;-73
2023/03/21 04:30:45;;;;;;;;;;;;;;;6.57;92.15;101562.97;4969680;28;20322;-74
2023/03/21 04:33:14;;;;;;;;;;;;;;;6.56;92.21;101545.34;4978251;28;20349;-75
2023/03/21 04:35:47;;;;;;;;;;;;;;;6.57;92.21;101557.66;4961446;28;19941;-73
2023/03/21 04:38:13;;;;;;;;;;;;;;;6.60;92.29;101557.19;4977192;28;20389;-72
2023/03/21 04:40:39;;;;;;;;;;;;;;;6.59;91.97;101555.56;4964993;28;19951;-73
2023/03/21 04:43:04;;;;;;;;;;;;;;;6.58;92.01;101553.94;4953519;28;20024;-72
2023/03/21 04:45:30;;;;;;;;;;;;;;;6.59;92.11;101550.25;4961470;28;20012;-73
2023/03/21 04:47:57;;;;;;;;;;;;;;;6.56;92.12;101546.16;4979385;28;19956;-73
2023/03/21 04:50:23;;;;;;;;;;;;;;;6.58;92.07;101553.94;4974381;28;19941;-72
2023/03/21 04:52:48;;;;;;;;;;;;;;;6.59;92.17;101549.44;4957559;28;19942;-74
2023/03/21 04:55:14;;;;;;;;;;;;;;;6.62;91.95;101544.47;4956464;28;19942;-73
2023/03/21 04:57:40;;;;;;;;;;;;;;;6.63;92.02;101554.06;4979860;28;19957;-73
2023/03/21 05:00:10;;;;;;;;;;;;;;;6.59;92.05;101552.91;4960511;28;20346;-73
2023/03/21 05:02:37;;;;;;;;;;;;;;;6.65;92.37;101552.00;4959528;28;20028;-73
2023/03/21 05:05:04;;;;;;;;;;;;;;;6.58;92.34;101561.94;4983775;28;19971;-73
2023/03/21 05:07:31;;;;;;;;;;;;;;;6.59;92.33;101552.91;4981233;28;20044;-72
2023/03/21 05:09:58;;;;;;;;;;;;;;;6.64;92.52;101553.06;4961678;28;20451;-73
2023/03/21 05:12:23;;;;;;;;;;;;;;;6.60;92.63;101551.88;4957017;28;19942;-72
2023/03/21 05:14:49;;;;;;;;;;;;;;;6.62;92.44;101549.78;4958192;28;19968;-73
2023/03/21 05:17:23;;;;;;;;;;;;;;;6.60;92.68;101545.72;4974103;28;19955;-73
2023/03/21 05:19:51;;;;;;;;;;;;;;;6.60;92.64;101549.22;4981999;28;19943;-73
2023/03/21 05:22:18;;;;;;;;;;;;;;;6.60;92.77;101551.88;4946754;28;19938;-74
2023/03/21 05:24:48;;;;;;;;;;;;;;;6.60;92.70;101543.88;4956549;28;19971;-73
2023/03/21 05:27:34;;;;;;;;;;;;;;;6.62;92.58;101547.13;4979457;28;19965;-73
2023/03/21 05:30:06;;;;;;;;;;;;;;;6.67;92.48;101546.47;4976896;28;19943;-73
2023/03/21 05:32:33;;;;;;;;;;;;;;;6.63;92.46;101540.75;4979602;28;19967;-72
2023/03/21 05:34:59;;;;;;;;;;;;;;;6.65;92.48;101544.03;4978442;28;20396;-72
2023/03/21 05:37:25;;;;;;;;;;;;;;;6.66;92.76;101537.66;4979546;28;19955;-71
2023/03/21 05:39:50;;;;;;;;;;;;;;;6.65;92.54;101538.72;4973417;28;20381;-74
2023/03/21 05:42:22;;;;;;;;;;;;;;;6.65;92.68;101535.25;4960321;28;20361;-72
2023/03/21 05:44:48;;;;;;;;;;;;;;;6.67;92.52;101533.16;4986680;28;20013;-72
2023/03/21 05:47:16;;;;;;;;;;;;;;;6.67;92.77;101539.28;4959318;28;19957;-72
2023/03/21 05:49:46;;;;;;;;;;;;;;;6.75;92.79;101538.97;4967492;28;19939;-73
2023/03/21 05:52:12;;;;;;;;;;;;;;;6.72;92.69;101534.13;4968330;28;19945;-73
2023/03/21 05:54:37;;;;;;;;;;;;;;;6.73;92.82;101527.75;4967896;28;19964;-73
2023/03/21 05:57:03;;;;;;;;;;;;;;;6.74;92.64;101532.03;4983144;28;20485;-72
2023/03/21 05:59:47;;;;;;;;;;;;;;;6.84;92.58;101534.97;4948987;28;20083;-73
2023/03/21 06:02:12;;;;;;;;;;;;;;;6.86;92.32;101534.75;4983147;28;20093;-72
2023/03/21 06:04:38;;;;;;;;;;;;;;;6.89;92.29;101538.81;4964800;28;19964;-73
2023/03/21 06:07:04;;;;;;;;;;;;;;;6.89;92.47;101534.28;4984656;28;19962;-72
2023/03/21 06:09:30;;;;;;;;;;;;;;;6.93;92.45;101537.31;4969075;28;20439;-72
2023/03/21 06:11:59;;;;;;;;;;;;;;;6.91;92.65;101531.38;4963094;28;19940;-72
2023/03/21 06:14:29;;;;;;;;;;;;;;;6.99;92.51;101528.44;4977167;28;19950;-73
2023/03/21 06:17:08;;;;;;;;;;;;;;;6.98;92.49;101527.63;4978323;28;19994;-74
2023/03/21 06:19:40;;;;;;;;;;;;;;;7.03;92.16;101529.59;4956562;28;19943;-74
2023/03/21 06:22:10;;;;;;;;;;;;;;;7.02;92.10;101519.97;4960912;28;19942;-74
2023/03/21 06:24:37;;;;;;;;;;;;;;;7.09;92.25;101521.50;4959681;28;19944;-72
2023/03/21 06:27:03;;;;;;;;;;;;;;;7.10;92.37;101519.66;4958035;28;20416;-72
2023/03/21 06:29:37;;;;;;;;;;;;;;;7.07;92.24;101522.78;4958892;28;20051;-72
2023/03/21 06:32:03;;;;;;;;;;;;;;;7.06;92.02;101515.84;4975356;28;19945;-72
2023/03/21 06:34:28;;;;;;;;;;;;;;;7.10;91.88;101514.31;4976648;28;19950;-72
2023/03/21 06:36:54;;;;;;;;;;;;;;;7.13;92.28;101513.88;4979551;28;19960;-72
2023/03/21 06:39:25;;;;;;;;;;;;;;;7.08;92.07;101519.88;4955019;28;20022;-72
2023/03/21 06:41:53;;;;;;;;;;;;;;;7.04;92.47;101524.03;4960310;28;20022;-71
2023/03/21 06:44:20;;;;;;;;;;;;;;;7.07;92.42;101520.13;4975550;28;19993;-75
2023/03/21 06:46:53;;;;;;;;;;;;;;;7.05;92.21;101520.34;5000235;28;19953;-72
2023/03/21 06:49:19;;;;;;;;;;;;;;;7.09;92.18;101518.84;4963606;28;19984;-73
2023/03/21 06:51:45;;;;;;;;;;;;;;;7.06;92.31;101529.16;4950577;28;19938;-73
2023/03/21 06:54:16;;;;;;;;;;;;;;;7.10;92.19;101524.97;4963329;28;19954;-72
2023/03/21 06:57:05;;;;;;;;;;;;;;;7.16;92.38;101524.06;4983670;28;19955;-72
2023/03/21 06:59:33;;;;;;;;;;;;;;;7.20;92.14;101521.78;4964609;28;19945;-71
2023/03/21 07:02:12;;;;;;;;;;;;;;;7.30;92.23;101522.84;4981413;28;19952;-75
2023/03/21 07:04:43;;;;;;;;;;;;;;;7.31;92.13;101511.13;4997240;28;19946;-72
2023/03/21 07:07:18;;;;;;;;;;;;;;;7.32;92.02;101515.44;4970714;28;20334;-73
2023/03/21 07:09:43;;;;;;;;;;;;;;;7.41;91.71;101525.75;4961477;28;20447;-73
2023/03/21 07:12:09;;;;;;;;;;;;;;;7.36;91.80;101529.91;4967576;28;19936;-73
2023/03/21 07:14:56;;;;;;;;;;;;;;;7.39;91.76;101518.81;4965419;28;20476;-72
2023/03/21 07:17:22;;;;;;;;;;;;;;;7.42;91.92;101519.38;4989475;28;19975;-71
2023/03/21 07:19:48;;;;;;;;;;;;;;;7.44;91.80;101526.09;4979232;28;19942;-72
2023/03/21 07:22:16;;;;;;;;;;;;;;;7.55;91.84;101524.50;4981155;28;19942;-74
2023/03/21 07:24:42;;;;;;;;;;;;;;;7.65;91.46;101519.41;4983565;28;19937;-74
2023/03/21 07:27:10;;;;;;;;;;;;;;;7.53;91.39;101529.25;4958900;28;19955;-74
2023/03/21 07:29:37;;;;;;;;;;;;;;;7.53;91.40;101519.41;4961827;28;20001;-72
2023/03/21 07:32:03;;;;;;;;;;;;;;;7.64;91.48;101525.78;4969312;28;19943;-73
2023/03/21 07:34:32;;;;;;;;;;;;;;;7.63;91.26;101527.63;4978491;28;19936;-72
2023/03/21 07:36:58;;;;;;;;;;;;;;;7.64;91.53;101517.78;4979936;28;20045;-73
2023/03/21 07:39:28;;;;;;;;;;;;;;;7.66;91.59;101529.84;4977250;28;20044;-75
2023/03/21 07:41:56;;;;;;;;;;;;;;;7.68;91.51;101520.81;4974623;28;19942;-73
2023/03/21 07:44:29;;;;;;;;;;;;;;;7.69;91.35;101519.75;4967251;28;19936;-72
2023/03/21 07:47:01;;;;;;;;;;;;;;;7.65;91.39;101522.06;4980677;28;20005;-73
2023/03/21 07:49:26;;;;;;;;;;;;;;;7.69;91.33;101523.25;4967883;28;19945;-74
2023/03/21 07:51:52;;;;;;;;;;;;;;;7.64;91.33;101528.44;4960148;28;19935;-75
2023/03/21 07:54:20;;;;;;;;;;;;;;;7.71;91.38;101526.47;4973644;28;20457;-73
2023/03/21 07:56:46;;;;;;;;;;;;;;;7.71;91.04;101520.34;4977438;28;20101;-73
2023/03/21 07:59:12;;;;;;;;;;;;;;;7.67;91.32;101522.66;4974176;28;20394;-73
2023/03/21 08:01:37;;;;;;;;;;;;;;;7.68;91.19;101518.16;4984063;28;19938;-73
2023/03/21 08:04:02;;;;;;;;;;;;;;;7.69;91.35;101520.56;4958682;28;19987;-72
2023/03/21 08:06:31;;;;;;;;;;;;;;;7.65;91.16;101527.41;4981618;28;20435;-72
2023/03/21 08:08:59;;;;;;;;;;;;;;;7.70;91.32;101524.84;4977496;28;19940;-73
2023/03/21 08:11:26;;;;;;;;;;;;;;;7.70;91.17;101516.88;4974238;28;19965;-72
2023/03/21 08:13:52;;;;;;;;;;;;;;;7.76;91.58;101521.28;4965035;28;19937;-72
2023/03/21 08:16:18;;;;;;;;;;;;;;;7.84;91.31;101518.25;4977917;28;19940;-73
2023/03/21 08:18:43;;;;;;;;;;;;;;;7.87;91.02;101520.47;4974293;28;19969;-73
2023/03/21 08:21:09;;;;;;;;;;;;;;;7.93;90.86;101524.06;4973793;28;19937;-72
2023/03/21 08:23:35;;;;;;;;;;;;;;;7.89;90.85;101518.38;4946455;28;19939;-73
2023/03/21 08:26:01;;;;;;;;;;;;;;;8.05;90.71;101513.38;4971713;28;19954;-72
2023/03/21 08:28:26;;;;;;;;;;;;;;;7.97;90.38;101508.41;4975834;28;20502;-73
2023/03/21 08:30:52;;;;;;;;;;;;;;;8.02;90.45;101513.84;4965344;28;19978;-73
2023/03/21 08:33:18;;;;;;;;;;;;;;;8.08;90.30;101520.91;4963939;28;20412;-73
2023/03/21 08:35:44;;;;;;;;;;;;;;;8.05;90.26;101516.03;4980746;28;19940;-73
2023/03/21 08:38:10;;;;;;;;;;;;;;;8.10;90.67;101521.50;4978079;28;20434;-72
2023/03/21 08:40:35;;;;;;;;;;;;;;;8.08;90.65;101515.59;4961089;28;19954;-72
2023/03/21 08:43:01;;;;;;;;;;;;;;;8.02;90.68;101512.00;4975712;28;20396;-72
2023/03/21 08:45:27;;;;;;;;;;;;;;;8.12;90.79;101512.19;4960165;28;20050;-74
2023/03/21 08:47:52;;;;;;;;;;;;;;;8.19;90.63;101507.53;4945580;28;19962;-73
2023/03/21 08:50:20;;;;;;;;;;;;;;;8.21;90.59;101518.00;4979723;28;20026;-73
2023/03/21 08:52:45;;;;;;;;;;;;;;;8.13;90.79;101516.50;4958100;28;20721;-72
2023/03/21 08:55:14;;;;;;;;;;;;;;;8.23;90.64;101515.91;4979667;28;19939;-72
2023/03/21 08:57:47;;;;;;;;;;;;;;;8.13;90.45;101505.84;4966537;28;19957;-72
2023/03/21 09:00:16;;;;;;;;;;;;;;;8.13;90.44;101511.19;4972425;28;20394;-73
2023/03/21 09:02:42;;;;;;;;;;;;;;;8.21;90.76;101520.66;4961482;28;20014;-75
2023/03/21 09:05:10;;;;;;;;;;;;;;;8.19;90.59;101512.06;4979928;28;20047;-72
2023/03/21 09:07:38;;;;;;;;;;;;;;;8.16;90.44;101517.88;4963256;28;19952;-73
2023/03/21 09:10:05;;;;;;;;;;;;;;;8.15;90.57;101510.94;4977361;28;20226;-74
2023/03/21 09:12:31;;;;;;;;;;;;;;;8.22;90.41;101500.94;4984466;28;19934;-73
2023/03/21 09:14:57;;;;;;;;;;;;;;;8.32;89.75;101511.00;4964407;28;19944;-71
2023/03/21 09:17:22;;;;;;;;;;;;;;;8.35;89.74;101511.38;4978807;28;19999;-72
2023/03/21 09:19:48;;;;;;;;;;;;;;;8.42;89.52;101512.06;4985427;28;19951;-71
2023/03/21 09:22:16;;;;;;;;;;;;;;;8.40;89.13;101508.84;4974873;28;20031;-74
2023/03/21 09:24:42;;;;;;;;;;;;;;;8.42;89.18;101512.06;4978827;28;20372;-73
2023/03/21 09:27:09;;;;;;;;;;;;;;;8.50;88.93;101507.41;4959976;28;19959;-71
2023/03/21 09:29:34;;;;;;;;;;;;;;;8.55;88.78;101510.19;4983639;28;19935;-71
2023/03/21 09:32:00;;;;;;;;;;;;;;;8.51;88.85;101509.03;4976887;28;19948;-73
2023/03/21 09:34:27;;;;;;;;;;;;;;;8.64;88.82;101506.06;4944829;28;19937;-74
2023/03/21 09:36:55;;;;;;;;;;;;;;;8.58;88.85;101507.03;4968072;28;20019;-72
2023/03/21 09:39:21;;;;;;;;;;;;;;;8.63;88.66;101507.94;4987013;28;19996;-72
2023/03/21 09:41:59;;;;;;;;;;;;;;;8.66;88.59;101502.09;4984662;28;19932;-74
2023/03/21 09:44:45;;;;;;;;;;;;;;;8.76;88.08;101501.50;4984222;28;19985;-73
2023/03/21 09:47:20;;;;;;;;;;;;;;;8.77;88.13;101500.44;4978434;28;20018;-73
2023/03/21 09:49:50;;;;;;;;;;;;;;;8.79;88.24;101494.88;4996429;28;19935;-72
2023/03/21 09:52:36;;;;;;;;;;;;;;;8.81;88.01;101495.47;4961194;28;19936;-74
2023/03/21 09:55:03;;;;;;;;;;;;;;;8.82;88.22;101502.41;4976664;28;20094;-71
2023/03/21 09:57:41;;;;;;;;;;;;;;;8.92;87.92;101500.72;4978934;28;19955;-73
2023/03/21 10:00:24;;;;;;;;;;;;;;;8.83;88.30;101496.03;4962114;28;19939;-72
2023/03/21 10:02:52;;;;;;;;;;;;;;;8.97;88.55;101495.47;4962362;28;21185;-72
2023/03/21 10:05:20;;;;;;;;;;;;;;;8.99;88.41;101492.56;4976772;28;21063;-72
2023/03/21 10:07:55;;;;;;;;;;;;;;;8.95;88.06;101489.56;4962085;28;19965;-73
2023/03/21 10:10:25;;;;;;;;;;;;;;;8.86;88.62;101491.00;5001460;28;19941;-73
2023/03/21 10:12:52;;;;;;;;;;;;;;;8.98;88.63;101494.44;4958926;28;20399;-72
2023/03/21 10:15:19;;;;;;;;;;;;;;;8.85;89.02;101489.38;4981696;28;19934;-73
2023/03/21 10:17:51;;;;;;;;;;;;;;;8.90;88.92;101488.66;4959425;28;20037;-73
2023/03/21 10:20:16;;;;;;;;;;;;;;;8.84;89.20;101487.75;4979804;28;19936;-73
2023/03/21 10:22:42;;;;;;;;;;;;;;;8.87;89.41;101476.59;4976518;28;19937;-73
2023/03/21 10:25:12;;;;;;;;;;;;;;;8.87;89.25;101476.59;4971565;28;20021;-72
2023/03/21 10:27:40;;;;;;;;;;;;;;;8.86;89.27;101474.16;4958017;28;19986;-72
2023/03/21 10:30:09;;;;;;;;;;;;;;;8.89;89.43;101479.03;4981244;28;19981;-72
2023/03/21 10:32:35;;;;;;;;;;;;;;;8.93;89.50;101474.81;4974796;28;19946;-72
2023/03/21 10:35:03;;;;;;;;;;;;;;;8.89;89.07;101474.50;4975735;28;19936;-72
2023/03/21 10:37:29;;;;;;;;;;;;;;;8.84;89.54;101477.06;4976037;28;19962;-72
2023/03/21 10:39:58;;;;;;;;;;;;;;;8.96;89.60;101479.69;4977285;28;19939;-75
2023/03/21 10:42:24;;;;;;;;;;;;;;;8.98;89.43;101473.06;4980670;28;19944;-73
2023/03/21 10:44:52;;;;;;;;;;;;;;;9.07;89.33;101472.66;4954942;28;20062;-74
2023/03/21 10:47:21;;;;;;;;;;;;;;;9.02;89.34;101468.06;4984282;28;20518;-73
2023/03/21 10:49:47;;;;;;;;;;;;;;;9.06;89.41;101468.38;4978249;28;19951;-72
2023/03/21 10:52:16;;;;;;;;;;;;;;;9.02;88.94;101468.06;4996128;28;19945;-73
2023/03/21 10:54:42;;;;;;;;;;;;;;;9.01;89.11;101467.25;4968808;28;19948;-72
2023/03/21 10:57:10;;;;;;;;;;;;;;;8.98;89.46;101473.06;4979601;28;19958;-73
2023/03/21 10:59:57;;;;;;;;;;;;;;;8.89;89.53;101461.16;4977710;28;19945;-72
2023/03/21 11:02:33;;;;;;;;;;;;;;;8.93;89.36;101459.59;4979214;28;20581;-75
2023/03/21 11:05:03;;;;;;;;;;;;;;;8.96;89.23;101469.00;4975868;28;19968;-71
2023/03/21 11:07:30;;;;;;;;;;;;;;;8.97;89.34;101455.41;4972447;28;20275;-74
2023/03/21 11:10:00;;;;;;;;;;;;;;;8.94;89.28;101460.41;4963621;28;20719;-74
2023/03/21 11:12:28;;;;;;;;;;;;;;;8.91;89.44;101455.56;4960155;28;19951;-72
2023/03/21 11:14:53;;;;;;;;;;;;;;;8.86;89.48;101453.59;4984022;28;19986;-72
2023/03/21 11:17:23;;;;;;;;;;;;;;;8.89;88.82;101453.13;4982248;28;20019;-72
2023/03/21 11:19:55;;;;;;;;;;;;;;;8.93;89.37;101448.09;4975602;28;20003;-72
2023/03/21 11:22:22;;;;;;;;;;;;;;;8.83;89.12;101450.63;4974319;28;19946;-74
2023/03/21 11:24:50;;;;;;;;;;;;;;;8.92;89.29;101451.84;4979184;28;20726;-73
2023/03/21 11:27:16;;;;;;;;;;;;;;;8.96;89.25;101444.97;4965263;28;20338;-73
2023/03/21 11:29:50;;;;;;;;;;;;;;;9.20;89.24;101446.41;4962543;28;20351;-73
2023/03/21 11:32:21;;;;;;;;;;;;;;;9.13;88.62;101442.28;4974653;28;20592;-72
2023/03/21 11:34:50;;;;;;;;;;;;;;;9.18;88.44;101440.53;4967018;28;19943;-74
2023/03/21 11:37:26;;;;;;;;;;;;;;;9.23;88.45;101437.13;4980256;28;19954;-74
2023/03/21 11:40:03;;;;;;;;;;;;;;;9.29;88.58;101436.16;4992870;28;19935;-73
2023/03/21 11:42:30;;;;;;;;;;;;;;;9.26;88.68;101442.78;4960045;28;19948;-74
2023/03/21 11:45:00;;;;;;;;;;;;;;;9.29;88.46;101433.47;4977352;28;20043;-73
2023/03/21 11:47:26;;;;;;;;;;;;;;;9.20;88.81;101437.59;4973887;28;19951;-74
2023/03/21 11:49:51;;;;;;;;;;;;;;;9.22;88.76;101419.47;4957981;28;19949;-74
2023/03/21 11:52:26;;;;;;;;;;;;;;;9.25;88.60;101427.00;4969559;28;20374;-71
2023/03/21 11:54:57;;;;;;;;;;;;;;;9.25;88.58;101424.31;4979526;28;20371;-73
2023/03/21 11:57:29;;;;;;;;;;;;;;;9.25;88.31;101429.66;4944544;28;19956;-73
2023/03/21 12:00:01;;;;;;;;;;;;;;;9.31;88.30;101420.69;4961000;28;19941;-72
2023/03/21 12:02:33;;;;;;;;;;;;;;;9.41;87.68;101417.34;4953994;28;19964;-72
2023/03/21 12:05:03;;;;;;;;;;;;;;;9.42;87.61;101408.28;4958800;28;19965;-72
2023/03/21 12:07:41;;;;;;;;;;;;;;;9.52;87.51;101409.22;4973332;28;19959;-72
2023/03/21 12:10:15;;;;;;;;;;;;;;;9.69;87.37;101413.75;4963332;28;20392;-72
2023/03/21 12:12:51;;;;;;;;;;;;;;;9.67;86.52;101402.47;4974704;28;19939;-74
2023/03/21 12:15:21;;;;;;;;;;;;;;;9.73;86.30;101396.13;4956322;28;19935;-74
2023/03/21 12:17:55;;;;;;;;;;;;;;;9.75;86.59;101396.69;4960261;28;19947;-74
2023/03/21 12:20:33;;;;;;;;;;;;;;;9.73;86.02;101383.56;4975319;28;20955;-72
2023/03/21 12:23:06;;;;;;;;;;;;;;;9.54;86.47;101385.72;4975315;28;20329;-72
2023/03/21 12:25:44;;;;;;;;;;;;;;;9.57;86.84;101395.94;4971866;28;19962;-74
2023/03/21 12:28:22;;;;;;;;;;;;;;;9.66;86.75;101382.94;4975074;28;20064;-72
2023/03/21 12:30:54;;;;;;;;;;;;;;;9.75;84.89;101380.63;4964606;28;19939;-72
2023/03/21 12:33:40;;;;;;;;;;;;;;;9.85;84.40;101370.88;4965496;28;19938;-73
2023/03/21 12:36:26;;;;;;;;;;;;;;;9.94;84.13;101373.09;4970318;28;20402;-71
2023/03/21 12:39:01;;;;;;;;;;;;;;;9.80;84.41;101378.03;4977364;28;20139;-74
2023/03/21 12:41:33;;;;;;;;;;;;;;;9.53;85.42;101378.75;4972873;28;20414;-73
2023/03/21 12:44:09;;;;;;;;;;;;;;;9.39;86.11;101382.84;4976986;28;19934;-72
2023/03/21 12:46:37;;;;;;;;;;;;;;;9.38;86.69;101381.22;4965151;28;19954;-73
2023/03/21 12:49:19;;;;;;;;;;;;;;;9.49;86.03;101377.63;4977292;28;20338;-72
2023/03/21 12:51:50;;;;;;;;;;;;;;;9.40;85.78;101371.06;4981935;28;19937;-72
2023/03/21 12:54:22;;;;;;;;;;;;;;;9.40;85.93;101364.91;4978517;28;19951;-72
2023/03/21 12:56:54;;;;;;;;;;;;;;;9.33;86.25;101364.28;4963222;28;19942;-72
2023/03/21 12:59:24;;;;;;;;;;;;;;;9.27;87.01;101358.06;4964985;28;19952;-73
2023/03/21 13:01:52;;;;;;;;;;;;;;;9.26;87.28;101362.59;4976832;28;19992;-72
2023/03/21 13:04:24;;;;;;;;;;;;;;;9.21;87.52;101354.53;4977106;28;19949;-75